createdAt,value
2022-10-14T00:00:25.292Z,58.28
2022-10-14T00:02:59.006Z,66.43
2022-10-14T00:05:26.515Z,66.20
2022-10-14T00:10:27.407Z,60.25
2022-10-14T00:12:54.758Z,61.00
2022-10-14T00:15:28.023Z,62.25
2022-10-14T00:17:55.266Z,72.38
2022-10-14T00:20:29.078Z,70.93
2022-10-14T00:22:56.246Z,63.58
2022-10-14T00:25:23.426Z,72.95
2022-10-14T00:27:57.064Z,67.30
2022-10-14T00:30:24.310Z,57.30
2022-10-14T00:32:58.083Z,68.93
2022-10-14T00:35:25.404Z,59.38
2022-10-14T00:37:52.640Z,74.53
2022-10-14T00:40:26.289Z,70.10
2022-10-14T00:42:53.581Z,65.50
2022-10-14T00:45:36.116Z,72.97
2022-10-14T00:48:03.439Z,64.95
2022-10-14T00:50:30.589Z,74.15
2022-10-14T00:53:06.142Z,69.32
2022-10-14T00:55:33.318Z,66.57
2022-10-14T00:58:07.124Z,78.07
2022-10-14T01:00:34.509Z,67.38
2022-10-14T01:03:01.703Z,70.72
2022-10-14T01:05:39.062Z,74.50
2022-10-14T01:08:06.356Z,76.77
2022-10-14T01:10:55.064Z,72.03
2022-10-14T01:13:45.507Z,75.05
2022-10-14T01:16:28.103Z,75.57
2022-10-14T01:19:14.095Z,93.90
2022-10-14T01:21:52.130Z,85.10
2022-10-14T01:24:19.349Z,71.63
2022-10-14T01:26:54.035Z,69.30
2022-10-14T01:29:40.110Z,85.72
2022-10-14T01:32:18.121Z,74.25
2022-10-14T01:34:49.939Z,85.10
2022-10-14T01:37:26.078Z,75.25
2022-10-14T01:39:56.077Z,76.75
2022-10-14T01:42:34.058Z,83.85
2022-10-14T01:45:20.072Z,75.72
2022-10-14T01:47:56.029Z,78.03
2022-10-14T01:50:24.759Z,68.60
2022-10-14T01:53:10.205Z,99.05
2022-10-14T01:55:39.203Z,80.90
2022-10-14T01:58:07.263Z,103.50
2022-10-14T02:00:41.117Z,92.63
2022-10-14T02:03:08.383Z,95.40
2022-10-14T02:05:49.084Z,116.78
2022-10-14T02:08:31.633Z,115.35
2022-10-14T02:11:13.217Z,109.75
2022-10-14T02:13:47.763Z,99.85
2022-10-14T02:16:27.165Z,134.93
2022-10-14T02:19:00.177Z,141.98
2022-10-14T02:21:37.077Z,130.80
2022-10-14T02:24:10.275Z,125.82
2022-10-14T02:26:45.141Z,138.32
2022-10-14T02:29:12.755Z,134.07
2022-10-14T02:34:15.695Z,82.95
2022-10-14T02:36:43.498Z,150.60
2022-10-14T02:39:19.308Z,103.43
2022-10-14T02:41:46.860Z,125.60
2022-10-14T02:44:27.176Z,138.50
2022-10-14T02:47:00.981Z,135.38
2022-10-14T02:49:35.124Z,124.13
2022-10-14T02:52:02.292Z,113.35
2022-10-14T02:54:29.494Z,119.45
2022-10-14T02:57:03.129Z,149.02
2022-10-14T02:59:30.358Z,124.90
2022-10-14T03:01:57.464Z,119.82
2022-10-14T03:04:31.112Z,141.30
2022-10-14T03:06:58.714Z,127.85
2022-10-14T03:11:59.312Z,110.93
2022-10-14T03:14:26.408Z,107.38
2022-10-14T03:17:00.097Z,125.95
2022-10-14T03:19:27.364Z,128.65
2022-10-14T03:22:01.212Z,124.72
2022-10-14T03:24:28.521Z,127.85
2022-10-14T03:26:55.639Z,98.68
2022-10-14T03:29:29.212Z,102.95
2022-10-14T03:31:56.390Z,112.35
2022-10-14T03:34:23.497Z,122.07
2022-10-14T03:36:57.172Z,118.90
2022-10-14T03:39:24.358Z,110.28
2022-10-14T03:41:58.470Z,124.82
2022-10-14T03:44:32.220Z,99.18
2022-10-14T03:47:12.126Z,121.88
2022-10-14T03:49:39.409Z,95.22
2022-10-14T03:52:06.588Z,107.20
2022-10-14T03:54:40.260Z,106.40
2022-10-14T03:57:07.516Z,115.15
2022-10-14T03:59:34.642Z,125.25
2022-10-14T04:02:08.140Z,109.97
2022-10-14T04:04:35.404Z,128.18
2022-10-14T04:07:09.299Z,112.72
2022-10-14T04:09:36.513Z,101.53
2022-10-14T04:12:03.604Z,78.47
2022-10-14T04:14:37.117Z,106.45
2022-10-14T04:17:04.270Z,95.38
2022-10-14T04:19:38.397Z,81.10
2022-10-14T04:22:05.599Z,78.60
2022-10-14T04:24:32.708Z,81.47
2022-10-14T04:27:06.238Z,89.15
2022-10-14T04:29:33.488Z,104.72
2022-10-14T04:32:00.607Z,93.60
2022-10-14T04:34:34.123Z,98.28
2022-10-14T04:37:01.327Z,96.57
2022-10-14T04:39:35.057Z,100.95
2022-10-14T04:42:02.512Z,92.03
2022-10-14T04:44:43.043Z,97.03
2022-10-14T04:47:17.255Z,68.53
2022-10-14T04:49:51.095Z,99.70
2022-10-14T04:52:18.640Z,116.47
2022-10-14T04:54:45.904Z,103.13
2022-10-14T04:57:19.060Z,99.68
2022-10-14T04:59:46.318Z,117.18
2022-10-14T05:02:13.454Z,112.93
2022-10-14T05:04:47.048Z,102.43
2022-10-14T05:07:14.327Z,111.43
2022-10-14T05:09:51.166Z,124.47
2022-10-14T05:12:19.871Z,125.70
2022-10-14T05:14:47.228Z,139.55
2022-10-14T05:17:21.102Z,108.30
2022-10-14T05:19:48.279Z,154.50
2022-10-14T05:22:22.325Z,120.28
2022-10-14T05:24:49.774Z,114.32
2022-10-14T05:27:16.876Z,139.25
2022-10-14T05:29:50.191Z,132.45
2022-10-14T05:32:17.577Z,138.00
2022-10-14T05:34:44.760Z,158.40
2022-10-14T05:37:18.153Z,136.13
2022-10-14T05:39:45.341Z,122.50
2022-10-14T05:42:19.608Z,111.18
2022-10-14T05:44:53.170Z,101.90
2022-10-14T05:47:27.316Z,77.70
2022-10-14T05:49:54.398Z,90.22
2022-10-14T05:52:21.825Z,65.05
2022-10-14T05:57:22.419Z,41.95
2022-10-14T05:59:56.112Z,52.63
2022-10-14T06:02:24.000Z,36.53
2022-10-14T06:04:51.533Z,40.35
2022-10-14T06:07:25.143Z,38.35
2022-10-14T06:09:52.391Z,32.58
2022-10-14T06:12:26.187Z,33.25
2022-10-14T06:14:53.401Z,29.58
2022-10-14T06:17:20.553Z,38.88
2022-10-14T06:19:54.216Z,28.13
2022-10-14T06:22:21.495Z,32.70
2022-10-14T06:24:55.842Z,29.52
2022-10-14T06:27:24.653Z,31.40
2022-10-14T06:30:04.349Z,28.50
2022-10-14T06:32:31.585Z,20.70
2022-10-14T06:34:58.702Z,25.55
2022-10-14T06:37:32.177Z,23.45
2022-10-14T06:39:59.476Z,23.80
2022-10-14T06:42:34.204Z,29.90
2022-10-14T06:45:08.144Z,26.88
2022-10-14T06:47:48.182Z,30.58
2022-10-14T06:50:15.396Z,21.33
2022-10-14T06:52:56.173Z,23.90
2022-10-14T06:55:30.111Z,27.63
2022-10-14T06:57:57.427Z,26.52
2022-10-14T07:00:25.111Z,29.13
2022-10-14T07:05:26.818Z,25.30
2022-10-14T07:10:28.371Z,28.60
2022-10-14T07:12:56.310Z,31.98
2022-10-14T07:15:35.256Z,23.13
2022-10-14T07:18:04.474Z,23.48
2022-10-14T07:20:38.374Z,16.75
2022-10-14T07:23:05.593Z,20.25
2022-10-14T07:25:33.058Z,23.95
2022-10-14T07:28:07.203Z,19.98
2022-10-14T07:30:34.511Z,25.02
2022-10-14T07:33:08.122Z,17.60
2022-10-14T07:35:35.596Z,22.52
2022-10-14T07:38:02.692Z,18.80
2022-10-14T07:40:44.464Z,16.58
2022-10-14T07:43:11.843Z,20.25
2022-10-14T07:45:54.398Z,28.63
2022-10-14T07:48:32.692Z,20.20
2022-10-14T07:51:13.240Z,19.23
2022-10-14T07:53:50.119Z,20.45
2022-10-14T07:56:17.401Z,19.05
2022-10-14T07:58:51.128Z,14.77
2022-10-14T08:01:19.124Z,22.48
2022-10-14T08:03:47.503Z,17.42
2022-10-14T08:06:21.225Z,19.75
2022-10-14T08:08:48.588Z,17.45
2022-10-14T08:11:17.020Z,22.48
2022-10-14T08:13:51.389Z,30.13
2022-10-14T08:16:18.572Z,18.33
2022-10-14T08:18:46.133Z,15.60
2022-10-14T08:23:47.734Z,15.25
2022-10-14T08:26:30.280Z,18.30
2022-10-14T08:28:57.850Z,15.20
2022-10-14T08:33:58.315Z,18.60
2022-10-14T08:36:25.639Z,14.80
2022-10-14T08:39:00.231Z,22.27
2022-10-14T08:41:39.345Z,17.23
2022-10-14T08:44:33.219Z,12.13
2022-10-14T08:47:12.829Z,17.52
2022-10-14T08:50:05.302Z,19.10
2022-10-14T08:52:40.241Z,23.35
2022-10-14T08:55:33.290Z,15.13
2022-10-14T08:58:10.553Z,11.45
2022-10-14T09:03:17.578Z,13.48
2022-10-14T09:05:52.193Z,17.38
2022-10-14T09:08:21.186Z,15.77
2022-10-14T09:10:55.221Z,19.33
2022-10-14T09:13:29.692Z,13.02
2022-10-14T09:16:10.192Z,13.55
2022-10-14T09:18:53.891Z,20.23
2022-10-14T09:21:51.642Z,14.15
2022-10-14T09:24:22.552Z,12.90
2022-10-14T09:27:19.387Z,11.23
2022-10-14T09:29:46.773Z,16.90
2022-10-14T09:32:23.720Z,15.88
2022-10-14T09:34:52.878Z,16.50
2022-10-14T09:37:33.256Z,19.83
2022-10-14T09:40:09.534Z,10.20
2022-10-14T09:43:02.237Z,15.68
2022-10-14T09:46:01.207Z,8.50
2022-10-14T09:48:41.237Z,13.90
2022-10-14T09:51:10.128Z,17.92
2022-10-14T09:53:44.436Z,17.45
2022-10-14T09:56:12.035Z,15.18
2022-10-14T10:01:22.231Z,18.20
2022-10-14T10:03:50.211Z,16.25
2022-10-14T10:06:26.214Z,15.38
2022-10-14T10:08:53.426Z,13.43
2022-10-14T10:11:46.323Z,14.10
2022-10-14T10:14:30.054Z,19.65
2022-10-14T10:17:16.383Z,10.77
2022-10-14T10:19:44.589Z,15.27
2022-10-14T10:22:40.289Z,17.33
2022-10-14T10:25:10.559Z,11.57
2022-10-14T10:27:46.223Z,19.63
2022-10-14T10:30:16.608Z,11.75
2022-10-14T10:32:53.227Z,16.05
2022-10-14T10:35:26.337Z,11.75
2022-10-14T10:38:07.295Z,13.10
2022-10-14T10:40:41.603Z,12.25
2022-10-14T10:43:34.541Z,16.20
2022-10-14T10:46:21.236Z,15.23
2022-10-14T10:49:01.454Z,10.93
2022-10-14T10:51:39.510Z,16.42
2022-10-14T10:54:13.375Z,12.90
2022-10-14T10:56:40.439Z,14.32
2022-10-14T10:59:30.237Z,12.75
2022-10-14T11:02:11.148Z,16.42
2022-10-14T11:04:57.105Z,13.05
2022-10-14T11:07:56.146Z,11.95
2022-10-14T11:10:54.120Z,11.18
2022-10-14T11:13:34.370Z,12.23
2022-10-14T11:16:10.929Z,8.02
2022-10-14T11:18:53.433Z,12.52
2022-10-14T11:21:36.751Z,8.65
2022-10-14T11:24:21.356Z,6.95
2022-10-14T11:26:57.657Z,7.68
2022-10-14T11:29:47.325Z,9.82
2022-10-14T11:32:20.491Z,6.45
2022-10-14T11:35:03.486Z,14.48
2022-10-14T11:37:38.172Z,12.82
2022-10-14T11:40:22.295Z,6.88
2022-10-14T11:42:58.114Z,9.48
2022-10-14T11:45:39.306Z,8.25
2022-10-14T11:48:19.010Z,5.00
2022-10-14T11:50:54.266Z,10.38
2022-10-14T11:53:23.297Z,8.07
2022-10-14T11:55:54.027Z,9.98
2022-10-14T11:58:30.262Z,12.27
2022-10-14T12:01:00.656Z,12.32
2022-10-14T12:03:53.323Z,8.98
2022-10-14T12:06:20.533Z,13.73
2022-10-14T12:09:09.336Z,11.88
2022-10-14T12:11:45.125Z,8.88
2022-10-14T12:14:21.310Z,8.48
2022-10-14T12:16:48.963Z,6.03
2022-10-14T12:21:59.314Z,10.85
2022-10-14T12:24:37.193Z,6.95
2022-10-14T12:27:05.377Z,12.30
2022-10-14T12:29:34.860Z,6.10
2022-10-14T12:32:11.512Z,6.60
2022-10-14T12:34:40.518Z,10.10
2022-10-14T12:37:32.858Z,9.13
2022-10-14T12:40:10.212Z,8.88
2022-10-14T12:42:39.625Z,8.48
2022-10-14T12:45:32.229Z,7.53
2022-10-14T12:48:08.595Z,10.23
2022-10-14T12:50:45.252Z,10.95
2022-10-14T12:53:22.728Z,21.75
2022-10-14T12:55:58.333Z,7.10
2022-10-14T12:58:34.711Z,7.78
2022-10-14T13:01:22.339Z,10.43
2022-10-14T13:06:46.240Z,7.88
2022-10-14T13:09:13.449Z,8.80
2022-10-14T13:11:41.330Z,6.00
2022-10-14T13:14:34.312Z,6.32
2022-10-14T13:17:05.047Z,9.27
2022-10-14T13:19:42.319Z,10.30
2022-10-14T13:22:31.436Z,11.32
2022-10-14T13:25:27.375Z,7.60
2022-10-14T13:28:26.786Z,10.20
2022-10-14T13:33:47.027Z,10.25
2022-10-14T13:36:26.536Z,4.93
2022-10-14T13:38:57.928Z,12.32
2022-10-14T13:41:33.313Z,18.58
2022-10-14T13:44:01.371Z,11.77
2022-10-14T13:46:45.291Z,7.30
2022-10-14T13:49:20.983Z,5.07
2022-10-14T13:52:04.561Z,9.60
2022-10-14T13:54:32.282Z,10.30
2022-10-14T13:57:47.892Z,7.78
2022-10-14T14:00:42.015Z,5.10
2022-10-14T14:03:26.489Z,7.57
2022-10-14T14:05:54.094Z,8.70
2022-10-14T14:08:50.825Z,9.00
2022-10-14T14:11:35.247Z,6.45
2022-10-14T14:14:09.375Z,11.25
2022-10-14T14:19:19.048Z,7.05
2022-10-14T14:21:53.523Z,7.53
2022-10-14T14:24:23.901Z,9.05
2022-10-14T14:27:00.446Z,5.75
2022-10-14T14:29:29.011Z,10.25
2022-10-14T14:32:12.576Z,12.02
2022-10-14T14:34:47.419Z,17.60
2022-10-14T14:40:21.687Z,8.93
2022-10-14T14:42:57.258Z,12.57
2022-10-14T14:46:00.400Z,10.43
2022-10-14T14:48:41.235Z,10.07
2022-10-14T14:51:10.718Z,8.70
2022-10-14T14:53:44.283Z,9.52
2022-10-14T14:56:17.795Z,8.45
2022-10-14T14:58:55.243Z,9.23
2022-10-14T15:01:27.149Z,6.78
2022-10-14T15:04:13.494Z,8.88
2022-10-14T15:06:51.043Z,11.27
2022-10-14T15:09:31.268Z,10.65
2022-10-14T15:11:58.825Z,7.53
2022-10-14T15:17:00.385Z,10.85
2022-10-14T15:19:28.731Z,8.95
2022-10-14T15:22:23.974Z,13.13
2022-10-14T15:25:08.126Z,11.30
2022-10-14T15:27:46.770Z,9.23
2022-10-14T15:30:24.346Z,10.02
2022-10-14T15:32:59.322Z,15.80
2022-10-14T15:35:26.814Z,7.10
2022-10-14T15:38:00.393Z,10.80
2022-10-14T15:40:29.235Z,11.98
2022-10-14T17:07:03.444Z,13.25
2022-10-14T17:09:39.311Z,10.05
2022-10-14T17:12:14.582Z,13.13
2022-10-14T17:14:42.015Z,14.32
2022-10-14T17:17:10.317Z,13.10
2022-10-14T17:19:45.351Z,13.98
2022-10-14T17:22:12.761Z,18.55
2022-10-14T17:24:46.455Z,17.00
2022-10-14T17:27:13.635Z,18.48
2022-10-14T17:29:47.403Z,10.52
2022-10-14T17:32:14.593Z,12.43
2022-10-14T17:34:55.415Z,11.07
2022-10-14T17:37:22.859Z,11.75
2022-10-14T17:39:49.953Z,16.45
2022-10-14T17:42:23.570Z,11.77
2022-10-14T17:44:50.950Z,18.00
2022-10-14T17:47:24.839Z,14.50
2022-10-14T17:49:52.328Z,8.48
2022-10-14T17:52:19.434Z,12.95
2022-10-14T17:54:56.457Z,15.63
2022-10-14T17:57:26.344Z,21.83
2022-10-14T18:00:00.537Z,23.90
2022-10-14T18:02:28.279Z,18.38
2022-10-14T18:05:02.383Z,36.83
2022-10-14T18:07:29.738Z,24.95
2022-10-14T18:10:03.420Z,16.60
2022-10-14T18:12:30.679Z,22.45
2022-10-14T18:14:57.849Z,11.35
2022-10-14T18:17:31.456Z,13.45
2022-10-14T18:20:01.611Z,10.55
2022-10-14T18:22:36.531Z,7.30
2022-10-14T18:25:05.145Z,15.55
2022-10-14T18:27:32.266Z,17.15
2022-10-14T18:30:06.390Z,14.82
2022-10-14T18:32:33.645Z,18.30
2022-10-14T18:35:08.539Z,10.90
2022-10-14T18:37:35.776Z,9.73
2022-10-14T18:40:02.922Z,7.57
2022-10-14T18:42:36.428Z,12.77
2022-10-14T18:45:03.634Z,13.93
2022-10-14T18:47:37.538Z,10.82
2022-10-14T18:50:04.872Z,10.38
2022-10-14T18:52:33.070Z,16.92
2022-10-14T18:55:06.373Z,7.72
2022-10-14T18:57:33.615Z,11.07
2022-10-14T19:00:09.446Z,11.98
2022-10-14T19:02:39.312Z,11.23
2022-10-14T19:05:30.845Z,14.77
2022-10-14T19:08:00.237Z,6.70
2022-10-14T19:10:34.426Z,10.70
2022-10-14T19:13:10.451Z,7.65
2022-10-14T19:15:51.405Z,10.27
2022-10-14T19:18:27.509Z,14.43
2022-10-14T19:20:57.137Z,9.23
2022-10-14T19:23:24.855Z,9.95
2022-10-14T19:25:58.500Z,14.57
2022-10-14T19:28:26.011Z,11.95
2022-10-14T19:33:26.956Z,12.85
2022-10-14T19:36:07.543Z,11.10
2022-10-14T19:38:35.371Z,11.55
2022-10-14T19:41:03.203Z,8.23
2022-10-14T19:43:37.591Z,17.48
2022-10-14T19:46:08.873Z,10.65
2022-10-14T19:48:36.095Z,14.50
2022-10-14T19:51:10.412Z,6.93
2022-10-14T19:53:40.699Z,14.90
2022-10-14T19:56:15.719Z,10.27
2022-10-14T19:58:44.824Z,13.23
2022-10-14T20:01:13.520Z,20.95
2022-10-14T20:03:47.638Z,14.50
2022-10-14T20:06:21.839Z,21.70
2022-10-14T20:08:55.513Z,13.00
2022-10-14T20:11:24.462Z,11.13
2022-10-14T20:13:58.533Z,12.90
2022-10-14T20:16:26.986Z,16.23
2022-10-14T20:18:54.131Z,16.88
2022-10-14T20:21:27.694Z,15.82
2022-10-14T20:23:54.884Z,14.50
2022-10-14T20:26:22.289Z,19.10
2022-10-14T20:28:56.622Z,16.05
2022-10-14T20:31:25.421Z,18.48
2022-10-14T20:33:59.510Z,21.88
2022-10-14T20:36:26.950Z,19.73
2022-10-14T20:39:00.420Z,15.20
2022-10-14T20:41:27.907Z,13.68
2022-10-14T20:44:02.427Z,13.60
2022-10-14T20:46:29.747Z,15.82
2022-10-14T20:49:03.443Z,19.75
2022-10-14T20:51:30.730Z,18.23
2022-10-14T20:54:08.338Z,13.05
2022-10-14T20:56:37.217Z,16.52
2022-10-14T20:59:26.639Z,27.45
2022-10-14T21:02:00.406Z,20.83
2022-10-14T21:04:34.523Z,20.42
2022-10-14T21:07:08.429Z,17.42
2022-10-14T21:09:49.472Z,20.00
2022-10-14T21:12:16.654Z,22.02
2022-10-14T21:14:43.767Z,26.60
2022-10-14T21:17:17.450Z,20.13
2022-10-14T21:19:44.635Z,17.88
2022-10-14T21:22:18.465Z,27.90
2022-10-14T21:24:45.680Z,20.13
2022-10-14T21:27:19.628Z,22.05
2022-10-14T21:29:49.305Z,19.35
2022-10-14T21:32:16.727Z,20.95
2022-10-14T21:34:50.460Z,28.73
2022-10-14T21:37:18.106Z,22.63
2022-10-14T21:42:18.694Z,24.75
2022-10-14T21:44:52.486Z,27.83
2022-10-14T21:47:19.652Z,29.15
2022-10-14T21:49:47.277Z,29.13
2022-10-14T21:54:48.199Z,25.45
2022-10-14T21:57:23.935Z,30.40
2022-10-14T21:59:51.311Z,20.30
2022-10-14T22:02:18.510Z,22.02
2022-10-14T22:04:52.534Z,29.52
2022-10-14T22:07:26.525Z,34.60
2022-10-14T22:10:00.737Z,26.10
2022-10-14T22:12:29.790Z,32.80
2022-10-14T22:14:56.956Z,35.15
2022-10-14T22:17:30.557Z,30.77
2022-10-14T22:19:58.780Z,27.02
2022-10-14T22:22:32.492Z,32.85
2022-10-14T22:24:59.651Z,26.80
2022-10-14T22:27:26.760Z,39.00
2022-10-14T22:30:00.457Z,34.75
2022-10-14T22:32:27.633Z,39.60
2022-10-14T22:35:01.515Z,28.27
2022-10-14T22:37:30.891Z,29.50
2022-10-14T22:39:57.974Z,22.17
2022-10-14T22:42:31.567Z,21.88
2022-10-14T22:44:58.786Z,36.35
2022-10-14T22:47:32.516Z,29.05
2022-10-14T22:49:59.779Z,20.75
2022-10-14T22:52:26.911Z,23.73
2022-10-14T22:55:00.461Z,25.40
2022-10-14T22:57:27.663Z,23.90
2022-10-14T23:00:01.468Z,27.83
2022-10-14T23:02:28.692Z,34.78
2022-10-14T23:05:02.519Z,32.85
2022-10-14T23:07:36.443Z,35.58
2022-10-14T23:10:10.637Z,34.33
2022-10-14T23:12:37.812Z,26.08
2022-10-14T23:15:05.024Z,30.27
2022-10-14T23:17:38.465Z,24.92
2022-10-14T23:20:05.747Z,31.75
2022-10-14T23:22:41.602Z,32.97
2022-10-14T23:25:08.797Z,31.98
2022-10-14T23:27:36.449Z,22.25
2022-10-14T23:32:37.743Z,29.08
2022-10-14T23:35:11.533Z,29.02
2022-10-14T23:37:38.890Z,37.97
2022-10-14T23:40:13.525Z,25.67
2022-10-14T23:42:40.856Z,28.80
2022-10-14T23:45:08.747Z,33.58
2022-10-14T23:47:42.747Z,35.65
2022-10-14T23:50:09.984Z,30.27
2022-10-14T23:52:37.097Z,27.95
2022-10-14T23:55:11.496Z,28.67
2022-10-14T23:57:38.829Z,31.40
